Pagrindinis puslapis
METAR-TAF:

METAR-TAF

Oro uostai :

Bender Abasas, Iranas

platuma: 27-13N, ilguma: 056-22E, Aukštis: 10 m

Dabartinis oras

Ataskaita buvo paskelbta 1 valandą ir 17 minutes, ne 04:00 UTC
Vėjas 4 kt iš Šiaurės Vakarų
Temperatūra 12°C
Drėgmė 88%
Slėgis 1018 hPa
Matomumas: 5000 m
Mažai debesys ne aukštis 10000 ft
rūkana

METAR: OIKB 300400Z 32004KT 5000 BR FEW100 12/10 Q1018 A3007 NOSIG

Laikas: 08:47 (05:17 UTC)

Prognozė

Ataskaita buvo paskelbta 6 valandos ir 17 minutes, ne 23:00 UTC
Prognozė galioja nuo 30 metu 00 UTC su 31 metu 06 UTC
Vėjas 8 kt iš Šiaurės
Matomumas: 8000 m
Tapsmas
nuo 30 metu 20 UTC su 30 metu 22 UTC
Matomumas: 5000 m
migla
Laikinai
nuo 30 metu 23 UTC su 31 metu 05 UTC
Matomumas: 3000 m
Mažai debesys ne aukštis 2500 ft
rūkana

TAF: OIKB 292300Z 3000/3106 01008KT 8000 NSC BECMG 3020/3022 5000 HZ TEMPO 3023/3105 3000 BR FEW025

Orai ataskaitas ir orų prognozės (METAR, TAF).

turimą stotys yra geltonos ir raudonos taškus žemėlapyje.

Perkelti pele per norėdami pamatyti stoties vardą.

Tada spustelėkite, norėdami matyti oro stebėjimo ir prognozės.

Norėdami pakeisti žemėlapį: spustelėkite ant žalios mygtukų su juodo kryžiaus žemyn,; žalią mygtuką su brūkšneliu, jei norite nutolinti; arba žalių rodyklių gretimoms žemėlapius.


METAR-TAF: